createdAt,value
2022-12-06T00:01:26.689Z,8.60
2022-12-06T00:03:56.528Z,9.50
2022-12-06T00:06:24.994Z,8.87
2022-12-06T00:08:52.611Z,8.70
2022-12-06T00:11:20.895Z,9.80
2022-12-06T00:13:49.074Z,8.77
2022-12-06T00:16:17.415Z,9.57
2022-12-06T00:18:45.878Z,9.87
2022-12-06T00:21:15.982Z,9.00
2022-12-06T00:23:44.534Z,9.20
2022-12-06T00:26:12.490Z,9.97
2022-12-06T00:28:40.499Z,9.27
2022-12-06T00:31:09.194Z,9.27
2022-12-06T00:33:36.979Z,8.97
2022-12-06T00:36:05.340Z,9.03
2022-12-06T00:38:34.752Z,9.63
2022-12-06T00:41:03.581Z,8.50
2022-12-06T00:43:31.476Z,8.53
2022-12-06T00:45:59.197Z,9.67
2022-12-06T00:48:26.663Z,9.57
2022-12-06T00:50:54.276Z,9.33
2022-12-06T00:53:23.039Z,9.47
2022-12-06T00:55:51.858Z,9.50
2022-12-06T00:58:19.804Z,10.00
2022-12-06T01:00:47.398Z,11.60
2022-12-06T01:03:14.926Z,10.30
2022-12-06T01:05:42.572Z,8.93
2022-12-06T01:08:10.421Z,8.93
2022-12-06T01:10:38.234Z,9.03
2022-12-06T01:13:07.146Z,10.57
2022-12-06T01:15:36.297Z,9.27
2022-12-06T01:18:03.811Z,9.40
2022-12-06T01:20:31.491Z,10.53
2022-12-06T01:22:58.914Z,10.30
2022-12-06T01:25:27.383Z,10.63
2022-12-06T01:27:56.103Z,10.10
2022-12-06T01:30:24.988Z,11.00
2022-12-06T01:32:52.454Z,10.60
2022-12-06T01:35:19.913Z,9.67
2022-12-06T01:37:47.389Z,9.23
2022-12-06T01:40:15.125Z,8.77
2022-12-06T01:42:42.590Z,9.37
2022-12-06T01:45:10.894Z,8.60
2022-12-06T01:47:40.953Z,9.83
2022-12-06T01:50:10.758Z,8.90
2022-12-06T01:52:40.708Z,8.73
2022-12-06T01:55:08.853Z,9.57
2022-12-06T01:57:36.327Z,8.43
2022-12-06T02:00:05.142Z,10.00
2022-12-06T02:02:37.972Z,9.10
2022-12-06T02:05:07.991Z,9.07
2022-12-06T02:07:35.587Z,8.73
2022-12-06T02:10:03.216Z,9.70
2022-12-06T02:12:30.680Z,9.93
2022-12-06T02:14:59.509Z,9.73
2022-12-06T02:17:30.734Z,8.50
2022-12-06T02:20:10.608Z,9.47
2022-12-06T02:22:46.606Z,9.10
2022-12-06T02:25:34.142Z,8.77
2022-12-06T02:28:12.151Z,9.20
2022-12-06T02:30:44.059Z,9.73
2022-12-06T02:33:15.974Z,10.20
2022-12-06T02:35:47.434Z,10.00
2022-12-06T02:38:15.883Z,9.20
2022-12-06T02:40:45.921Z,8.73
2022-12-06T02:43:15.104Z,8.47
2022-12-06T02:45:45.889Z,8.97
2022-12-06T02:48:13.886Z,9.63
2022-12-06T02:50:42.973Z,9.10
2022-12-06T02:53:13.363Z,8.67
2022-12-06T02:55:41.037Z,8.27
2022-12-06T02:58:08.464Z,8.77
2022-12-06T03:00:37.922Z,8.40
2022-12-06T03:03:15.362Z,9.10
2022-12-06T03:05:47.439Z,8.57
2022-12-06T03:08:18.420Z,10.00
2022-12-06T03:10:47.821Z,9.00
2022-12-06T03:13:17.541Z,9.43
2022-12-06T03:15:49.281Z,8.50
2022-12-06T03:18:20.036Z,8.97
2022-12-06T03:20:50.774Z,16.83
2022-12-06T03:23:21.536Z,11.27
2022-12-06T03:25:50.630Z,11.43
2022-12-06T03:28:18.378Z,27.47
2022-12-06T03:30:48.163Z,8.60
2022-12-06T03:33:16.374Z,22.70
2022-12-06T03:35:45.744Z,8.53
2022-12-06T03:38:15.259Z,15.40
2022-12-06T03:40:45.210Z,7.20
2022-12-06T03:43:12.723Z,6.97
2022-12-06T03:45:43.890Z,7.33
2022-12-06T03:48:12.807Z,13.53
2022-12-06T03:50:42.072Z,7.13
2022-12-06T03:53:10.876Z,7.23
2022-12-06T03:55:38.374Z,8.00
2022-12-06T03:58:05.832Z,7.33
2022-12-06T04:00:33.320Z,6.97
2022-12-06T04:03:00.797Z,6.47
2022-12-06T04:05:28.297Z,7.67
2022-12-06T04:07:55.786Z,8.20
2022-12-06T04:10:24.661Z,6.93
2022-12-06T04:13:05.873Z,7.80
2022-12-06T04:15:35.016Z,7.87
2022-12-06T04:18:10.805Z,6.73
2022-12-06T04:20:58.565Z,45.03
2022-12-06T04:23:26.501Z,17.87
2022-12-06T04:25:55.278Z,42.87
2022-12-06T04:28:40.335Z,17.20
2022-12-06T04:31:25.304Z,142.50
2022-12-06T04:34:10.350Z,75.00
2022-12-06T04:36:55.749Z,53.97
2022-12-06T04:39:23.222Z,73.40
2022-12-06T04:42:09.643Z,21.93
2022-12-06T04:44:37.131Z,60.43
2022-12-06T04:47:04.749Z,36.47
2022-12-06T04:49:32.266Z,34.77
2022-12-06T04:51:59.761Z,37.53
2022-12-06T04:54:27.261Z,36.90
2022-12-06T04:56:56.060Z,29.20
2022-12-06T04:59:23.756Z,20.40
2022-12-06T05:01:51.249Z,20.50
2022-12-06T05:04:18.927Z,13.10
2022-12-06T05:06:46.681Z,12.83
2022-12-06T05:09:14.436Z,11.77
2022-12-06T05:11:42.195Z,9.23
2022-12-06T05:14:11.057Z,10.30
2022-12-06T05:16:38.562Z,10.33
2022-12-06T05:19:06.107Z,9.07
2022-12-06T05:21:33.518Z,9.70
2022-12-06T05:24:00.942Z,11.03
2022-12-06T05:26:29.313Z,10.53
2022-12-06T05:28:57.017Z,9.47
2022-12-06T05:31:26.416Z,13.77
2022-12-06T05:33:54.190Z,13.43
2022-12-06T05:36:23.321Z,13.53
2022-12-06T05:38:51.741Z,10.63
2022-12-06T05:41:19.696Z,11.83
2022-12-06T05:43:47.192Z,11.10
2022-12-06T05:46:15.147Z,9.87
2022-12-06T05:48:44.706Z,9.97
2022-12-06T05:51:12.197Z,10.43
2022-12-06T05:53:40.758Z,8.30
2022-12-06T05:56:09.397Z,9.00
2022-12-06T05:58:36.964Z,8.83
2022-12-06T06:01:04.874Z,9.20
2022-12-06T06:03:32.483Z,8.70
2022-12-06T06:06:02.325Z,9.43
2022-12-06T06:08:30.463Z,8.27
2022-12-06T06:10:58.308Z,8.90
2022-12-06T06:13:25.773Z,9.03
2022-12-06T06:15:53.330Z,8.50
2022-12-06T06:18:21.086Z,8.27
2022-12-06T06:20:49.146Z,8.97
2022-12-06T06:23:18.315Z,8.20
2022-12-06T06:25:45.980Z,8.97
2022-12-06T06:28:13.446Z,12.17
2022-12-06T06:30:40.897Z,9.33
2022-12-06T06:33:08.331Z,9.53
2022-12-06T06:35:35.821Z,10.40
2022-12-06T06:38:03.638Z,9.70
2022-12-06T06:40:32.530Z,9.20
2022-12-06T06:43:17.892Z,8.97
2022-12-06T06:45:46.403Z,7.93
2022-12-06T06:48:14.222Z,8.37
2022-12-06T06:50:41.689Z,8.07
2022-12-06T06:53:09.145Z,9.20
2022-12-06T06:55:37.902Z,8.03
2022-12-06T06:58:06.114Z,8.23
2022-12-06T07:00:33.886Z,8.20
2022-12-06T07:03:01.626Z,8.37
2022-12-06T07:05:29.149Z,21.33
2022-12-06T07:07:57.685Z,8.27
2022-12-06T07:10:27.243Z,8.07
2022-12-06T07:12:56.066Z,10.53
2022-12-06T07:15:23.573Z,9.57
2022-12-06T07:17:53.530Z,7.97
2022-12-06T07:20:21.154Z,9.23
2022-12-06T07:22:48.583Z,9.33
2022-12-06T07:25:16.106Z,10.13
2022-12-06T07:27:43.611Z,9.37
2022-12-06T07:30:16.852Z,9.03
2022-12-06T07:32:44.841Z,10.77
2022-12-06T07:35:12.491Z,9.07
2022-12-06T07:37:42.646Z,9.30
2022-12-06T07:40:10.643Z,8.40
2022-12-06T07:42:55.564Z,9.70
2022-12-06T07:45:24.473Z,8.73
2022-12-06T07:47:51.894Z,8.73
2022-12-06T07:50:20.201Z,8.60
2022-12-06T07:52:48.365Z,9.10
2022-12-06T07:55:16.438Z,8.57
2022-12-06T07:57:44.329Z,8.40
2022-12-06T08:00:12.989Z,8.57
2022-12-06T08:02:41.864Z,8.70
2022-12-06T08:05:09.805Z,8.37
2022-12-06T08:07:37.358Z,10.03
2022-12-06T08:10:05.095Z,12.37
2022-12-06T08:12:33.003Z,10.10
2022-12-06T08:15:00.657Z,10.87
2022-12-06T08:17:28.262Z,12.73
2022-12-06T08:19:57.205Z,11.03
2022-12-06T08:22:24.786Z,12.33
2022-12-06T08:24:52.248Z,8.93
2022-12-06T08:27:19.721Z,13.50
2022-12-06T08:29:47.190Z,13.40
2022-12-06T08:32:14.629Z,12.93
2022-12-06T08:34:42.852Z,13.67
2022-12-06T08:37:11.677Z,15.20
2022-12-06T08:39:39.371Z,14.13
2022-12-06T08:42:07.938Z,18.03
2022-12-06T08:44:36.345Z,19.80
2022-12-06T08:47:04.167Z,16.63
2022-12-06T08:49:31.617Z,16.60
2022-12-06T08:51:59.631Z,16.23
2022-12-06T08:54:28.769Z,13.97
2022-12-06T08:56:56.296Z,19.60
2022-12-06T08:59:24.205Z,12.70
2022-12-06T09:01:51.743Z,12.43
2022-12-06T09:04:19.485Z,13.20
2022-12-06T09:06:47.362Z,12.37
2022-12-06T09:09:15.513Z,12.30
2022-12-06T09:11:45.497Z,14.03
2022-12-06T09:14:19.599Z,10.77
2022-12-06T09:16:49.594Z,11.80
2022-12-06T09:19:17.111Z,10.60
2022-12-06T09:21:46.158Z,13.37
2022-12-06T09:24:14.600Z,13.53
2022-12-06T09:26:42.046Z,13.97
2022-12-06T09:29:11.340Z,11.87
2022-12-06T09:31:40.166Z,11.70
2022-12-06T09:34:08.422Z,14.97
2022-12-06T09:36:37.322Z,13.13
2022-12-06T09:39:06.073Z,13.40
2022-12-06T09:41:43.328Z,17.70
2022-12-06T09:44:24.705Z,16.57
2022-12-06T09:46:58.782Z,16.27
2022-12-06T09:49:29.934Z,14.67
2022-12-06T09:52:04.512Z,18.63
2022-12-06T09:54:50.595Z,13.80
2022-12-06T09:57:21.513Z,15.50
2022-12-06T09:59:55.589Z,17.80
2022-12-06T10:02:31.593Z,17.57
2022-12-06T10:05:06.620Z,14.37
2022-12-06T10:07:39.278Z,13.80
2022-12-06T10:10:15.263Z,14.23
2022-12-06T10:12:52.826Z,13.67
2022-12-06T10:15:25.241Z,18.17
2022-12-06T10:18:02.093Z,17.33
2022-12-06T10:20:35.902Z,17.07
2022-12-06T10:23:10.052Z,17.90
2022-12-06T10:25:40.463Z,16.17
2022-12-06T10:28:11.802Z,15.97
2022-12-06T10:30:43.913Z,16.00
2022-12-06T10:33:20.269Z,17.97
2022-12-06T10:35:51.325Z,14.77
2022-12-06T10:38:23.000Z,17.47
2022-12-06T10:40:53.037Z,17.30
2022-12-06T10:43:24.577Z,16.90
2022-12-06T10:46:15.229Z,16.10
2022-12-06T10:48:44.625Z,16.57
2022-12-06T10:51:13.615Z,15.13
2022-12-06T10:53:44.207Z,17.60
2022-12-06T10:56:14.604Z,17.57
2022-12-06T10:58:45.649Z,16.27
2022-12-06T11:01:16.994Z,19.20
2022-12-06T11:03:45.976Z,18.40
2022-12-06T11:06:15.515Z,18.03
2022-12-06T11:08:44.769Z,17.97
2022-12-06T11:11:14.859Z,19.80
2022-12-06T11:13:44.472Z,19.87
2022-12-06T11:16:13.518Z,18.60
2022-12-06T11:18:42.581Z,18.40
2022-12-06T11:21:14.600Z,19.70
2022-12-06T11:23:46.500Z,15.27
2022-12-06T11:26:20.861Z,14.80
2022-12-06T11:28:52.497Z,17.63
2022-12-06T11:31:23.869Z,15.43
2022-12-06T11:33:52.821Z,16.73
2022-12-06T11:36:21.153Z,16.10
2022-12-06T11:38:48.666Z,16.17
2022-12-06T11:41:19.421Z,13.43
2022-12-06T11:43:46.948Z,14.70
2022-12-06T11:46:14.833Z,14.50
2022-12-06T11:48:43.018Z,16.23
2022-12-06T11:51:16.429Z,14.43
2022-12-06T11:53:48.818Z,13.27
2022-12-06T11:56:20.550Z,13.53
2022-12-06T11:58:50.168Z,13.07
2022-12-06T12:01:17.598Z,13.87
2022-12-06T12:03:46.145Z,14.40
2022-12-06T12:06:19.850Z,13.10
2022-12-06T12:08:55.092Z,15.77
2022-12-06T12:11:23.516Z,16.57
2022-12-06T12:13:52.170Z,14.67
2022-12-06T12:16:21.169Z,14.67
2022-12-06T12:18:53.367Z,13.97
2022-12-06T12:21:30.985Z,15.57
2022-12-06T12:23:58.465Z,13.67
2022-12-06T12:26:34.942Z,14.20
2022-12-06T12:29:04.439Z,14.53
2022-12-06T12:31:32.034Z,15.33
2022-12-06T12:34:14.094Z,15.93
2022-12-06T12:36:47.110Z,14.63
2022-12-06T12:39:23.632Z,15.43
2022-12-06T12:41:51.225Z,16.93
2022-12-06T12:44:37.549Z,17.07
2022-12-06T12:47:14.831Z,13.87
2022-12-06T12:49:42.287Z,16.13
2022-12-06T12:52:27.826Z,14.23
2022-12-06T12:55:00.511Z,16.73
2022-12-06T12:57:28.624Z,14.77
2022-12-06T12:59:56.093Z,16.47
2022-12-06T13:02:24.991Z,15.03
2022-12-06T13:05:10.944Z,15.47
2022-12-06T13:07:42.161Z,17.40
2022-12-06T13:10:13.102Z,18.93
2022-12-06T13:12:41.909Z,19.03
2022-12-06T13:15:13.373Z,17.10
2022-12-06T13:17:42.817Z,19.80
2022-12-06T13:20:20.031Z,17.90
2022-12-06T13:22:50.182Z,19.80
2022-12-06T13:25:17.721Z,19.30
2022-12-06T13:27:46.995Z,18.70
2022-12-06T13:30:17.496Z,19.63
2022-12-06T13:32:46.132Z,19.23
2022-12-06T13:35:19.176Z,20.07
2022-12-06T13:37:52.182Z,18.63
2022-12-06T13:40:38.200Z,17.60
2022-12-06T13:43:26.992Z,22.07
2022-12-06T13:45:55.257Z,18.17
2022-12-06T13:48:35.787Z,18.57
2022-12-06T13:51:04.835Z,18.47
2022-12-06T13:53:33.937Z,15.97
2022-12-06T13:56:02.927Z,20.03
2022-12-06T13:58:49.998Z,22.87
2022-12-06T14:01:39.982Z,18.97
2022-12-06T14:04:22.793Z,18.03
2022-12-06T14:06:50.898Z,19.13
2022-12-06T14:09:18.479Z,19.83
2022-12-06T14:11:46.199Z,18.47
2022-12-06T14:14:17.484Z,21.53
2022-12-06T14:16:46.913Z,19.03
2022-12-06T14:19:16.227Z,20.43
2022-12-06T14:21:44.989Z,18.43
2022-12-06T14:24:39.504Z,19.90
2022-12-06T14:27:08.289Z,18.60
2022-12-06T14:29:37.113Z,17.80
2022-12-06T14:32:04.641Z,19.03
2022-12-06T14:34:32.884Z,18.57
2022-12-06T14:37:01.449Z,18.30
2022-12-06T14:39:30.469Z,16.33
2022-12-06T14:42:16.450Z,23.87
2022-12-06T14:44:49.240Z,18.70
2022-12-06T14:47:17.465Z,19.17
2022-12-06T14:50:07.980Z,19.67
2022-12-06T14:52:35.467Z,23.37
2022-12-06T14:55:15.800Z,18.83
2022-12-06T14:57:46.308Z,26.50
2022-12-06T15:00:25.796Z,23.43
2022-12-06T15:03:23.120Z,24.60
2022-12-06T15:05:57.065Z,21.60
2022-12-06T15:08:33.523Z,23.30
2022-12-06T15:11:02.717Z,17.87
2022-12-06T15:13:29.341Z,19.20
2022-12-06T15:16:06.152Z,18.23
2022-12-06T15:18:34.942Z,20.63
2022-12-06T15:21:02.428Z,20.20
2022-12-06T15:23:30.914Z,19.57
2022-12-06T15:25:58.743Z,17.27
2022-12-06T15:28:26.307Z,17.60
2022-12-06T15:30:54.036Z,18.63
2022-12-06T15:33:23.974Z,21.40
2022-12-06T15:35:51.811Z,19.97
2022-12-06T15:38:19.478Z,18.90
2022-12-06T15:40:48.210Z,20.33
2022-12-06T15:43:23.872Z,25.30
2022-12-06T15:45:51.345Z,20.30
2022-12-06T15:48:18.820Z,24.73
2022-12-06T15:50:47.650Z,20.13
2022-12-06T15:53:15.708Z,20.20
2022-12-06T15:55:43.149Z,20.73
2022-12-06T15:58:10.885Z,18.93
2022-12-06T16:00:38.429Z,21.43
2022-12-06T16:03:05.930Z,20.17
2022-12-06T16:05:33.468Z,24.87
2022-12-06T16:08:02.343Z,19.53
2022-12-06T16:10:49.080Z,21.57
2022-12-06T16:13:23.541Z,31.73
2022-12-06T16:15:51.666Z,21.13
2022-12-06T16:18:19.187Z,24.83
2022-12-06T16:20:46.809Z,20.47
2022-12-06T16:24:04.191Z,18.67
2022-12-06T16:26:21.659Z,19.37
2022-12-06T16:28:49.105Z,19.70
2022-12-06T16:31:16.587Z,18.53
2022-12-06T16:33:44.082Z,20.17
2022-12-06T16:36:12.635Z,19.37
2022-12-06T16:38:41.536Z,18.83
2022-12-06T16:41:10.005Z,18.20
2022-12-06T16:43:37.465Z,19.73
2022-12-06T16:46:15.699Z,20.87
2022-12-06T16:48:43.182Z,20.03
2022-12-06T16:51:10.684Z,20.30
2022-12-06T16:53:38.180Z,18.57
2022-12-06T16:56:07.324Z,19.17
2022-12-06T16:58:34.795Z,17.97
2022-12-06T17:01:04.871Z,17.93
2022-12-06T17:03:32.396Z,20.17
2022-12-06T17:05:59.938Z,19.80
2022-12-06T17:08:27.945Z,17.23
2022-12-06T17:11:15.453Z,18.70
2022-12-06T17:13:44.257Z,18.90
2022-12-06T17:16:11.764Z,21.67
2022-12-06T17:18:39.289Z,23.20
2022-12-06T17:21:07.343Z,23.37
2022-12-06T17:23:34.847Z,22.30
2022-12-06T17:26:02.572Z,20.73
2022-12-06T17:28:30.010Z,16.70
2022-12-06T17:30:58.990Z,21.70
2022-12-06T17:33:26.486Z,21.37
2022-12-06T17:35:55.464Z,21.97
2022-12-06T17:38:22.919Z,19.37
2022-12-06T17:40:50.361Z,22.50
2022-12-06T17:43:16.794Z,18.50
2022-12-06T17:45:44.303Z,20.33
2022-12-06T17:48:13.174Z,22.33
2022-12-06T17:50:40.611Z,22.60
2022-12-06T17:53:08.102Z,20.67
2022-12-06T17:55:35.562Z,20.67
2022-12-06T17:58:03.257Z,19.67
2022-12-06T18:00:30.686Z,19.47
2022-12-06T18:02:58.271Z,21.33
2022-12-06T18:05:27.109Z,20.77
2022-12-06T18:07:54.633Z,19.23
2022-12-06T18:10:22.455Z,19.70
2022-12-06T18:12:49.911Z,18.47
2022-12-06T18:15:34.806Z,20.83
2022-12-06T18:18:02.240Z,22.73
2022-12-06T18:20:31.035Z,22.67
2022-12-06T18:22:58.484Z,23.57
2022-12-06T18:25:25.919Z,21.37
2022-12-06T18:27:53.452Z,22.80
2022-12-06T18:30:20.916Z,22.50
2022-12-06T18:32:48.403Z,20.97
2022-12-06T18:35:15.866Z,22.97
2022-12-06T18:37:44.658Z,22.63
2022-12-06T18:40:12.195Z,20.73
2022-12-06T18:42:39.857Z,19.93
2022-12-06T18:45:07.903Z,21.60
2022-12-06T18:47:35.393Z,20.57
2022-12-06T18:50:03.071Z,21.13
2022-12-06T18:52:30.563Z,18.47
2022-12-06T18:54:59.721Z,21.63
2022-12-06T18:57:31.928Z,19.53
2022-12-06T18:59:59.978Z,21.87
2022-12-06T19:02:28.068Z,22.30
2022-12-06T19:04:55.614Z,20.80
2022-12-06T19:07:25.091Z,21.57
2022-12-06T19:09:52.689Z,23.33
2022-12-06T19:12:21.516Z,22.37
2022-12-06T19:14:49.003Z,21.90
2022-12-06T19:17:16.485Z,22.70
2022-12-06T19:19:43.904Z,25.90
2022-12-06T19:22:11.379Z,23.03
2022-12-06T19:24:38.858Z,22.70
2022-12-06T19:27:06.326Z,22.20
2022-12-06T19:29:35.757Z,24.43
2022-12-06T19:32:03.410Z,23.60
2022-12-06T19:34:30.881Z,23.80
2022-12-06T19:36:58.358Z,23.20
2022-12-06T19:39:26.844Z,24.23
2022-12-06T19:42:11.733Z,22.17
2022-12-06T19:44:40.495Z,26.37
2022-12-06T19:47:07.944Z,22.53
2022-12-06T19:49:35.393Z,24.90
2022-12-06T19:52:02.875Z,22.50
2022-12-06T19:54:32.342Z,26.20
2022-12-06T19:57:01.728Z,23.60
2022-12-06T19:59:29.975Z,21.77
2022-12-06T20:01:59.078Z,22.93
2022-12-06T20:04:27.736Z,25.70
2022-12-06T20:06:55.317Z,23.87
2022-12-06T20:09:24.498Z,24.40
2022-12-06T20:12:04.470Z,23.27
2022-12-06T20:14:35.609Z,22.57
2022-12-06T20:17:04.590Z,23.07
2022-12-06T20:19:32.088Z,25.13
2022-12-06T20:21:59.543Z,26.03
2022-12-06T20:24:27.050Z,23.07
2022-12-06T20:26:55.282Z,25.37
2022-12-06T20:29:22.888Z,23.03
2022-12-06T20:31:51.156Z,23.53
2022-12-06T20:34:20.002Z,22.37
2022-12-06T20:36:47.786Z,23.50
2022-12-06T20:39:18.914Z,23.97
2022-12-06T20:41:46.307Z,26.53
2022-12-06T20:44:13.772Z,26.50
2022-12-06T20:46:41.343Z,25.07
2022-12-06T20:49:09.505Z,24.17
2022-12-06T20:51:38.478Z,22.77
2022-12-06T20:54:06.950Z,25.73
2022-12-06T20:56:35.278Z,26.10
2022-12-06T20:59:03.390Z,26.03
2022-12-06T21:01:32.180Z,25.97
2022-12-06T21:04:00.091Z,24.23
2022-12-06T21:06:27.567Z,27.63
2022-12-06T21:08:56.378Z,26.30
2022-12-06T21:11:24.885Z,25.30
2022-12-06T21:13:53.325Z,24.80
2022-12-06T21:16:22.652Z,26.33
2022-12-06T21:18:55.020Z,24.83
2022-12-06T21:21:24.469Z,27.87
2022-12-06T21:23:52.059Z,27.50
2022-12-06T21:26:20.889Z,25.93
2022-12-06T21:28:48.415Z,26.43
2022-12-06T21:31:16.109Z,26.53
2022-12-06T21:33:43.614Z,25.77
2022-12-06T21:36:12.456Z,24.57
2022-12-06T21:38:40.042Z,27.83
2022-12-06T21:41:08.458Z,24.73
2022-12-06T21:43:37.334Z,24.37
2022-12-06T21:46:05.903Z,25.87
2022-12-06T21:48:33.362Z,24.97
2022-12-06T21:51:01.709Z,25.50
2022-12-06T21:53:29.189Z,25.10
2022-12-06T21:55:56.633Z,27.00
2022-12-06T21:58:24.108Z,23.60
2022-12-06T22:00:52.906Z,24.03
2022-12-06T22:03:23.227Z,25.53
2022-12-06T22:05:51.060Z,22.97
2022-12-06T22:08:18.573Z,23.07
2022-12-06T22:10:46.125Z,24.40
2022-12-06T22:13:13.589Z,23.13
2022-12-06T22:15:41.172Z,24.57
2022-12-06T22:18:09.983Z,23.53
2022-12-06T22:20:37.423Z,23.33
2022-12-06T22:23:04.897Z,27.20
2022-12-06T22:25:32.432Z,23.70
2022-12-06T22:27:59.889Z,25.60
2022-12-06T22:30:27.322Z,25.90
2022-12-06T22:32:54.785Z,26.53
2022-12-06T22:35:23.651Z,26.97
2022-12-06T22:37:51.076Z,24.30
2022-12-06T22:40:18.538Z,25.87
2022-12-06T22:42:45.995Z,23.97
2022-12-06T22:45:13.465Z,24.73
2022-12-06T22:47:40.897Z,25.63
2022-12-06T22:50:08.883Z,25.87
2022-12-06T22:52:38.268Z,27.93
2022-12-06T22:55:06.172Z,26.00
2022-12-06T22:57:33.571Z,28.30
2022-12-06T23:00:01.215Z,26.77
2022-12-06T23:02:28.927Z,27.77
2022-12-06T23:04:56.454Z,27.63
2022-12-06T23:07:23.930Z,27.77
2022-12-06T23:09:52.721Z,27.50
2022-12-06T23:12:20.158Z,26.00
2022-12-06T23:14:47.578Z,27.40
2022-12-06T23:17:14.983Z,26.97
2022-12-06T23:19:42.434Z,24.90
2022-12-06T23:22:09.893Z,28.17
2022-12-06T23:24:37.393Z,27.37
2022-12-06T23:27:06.222Z,27.33
2022-12-06T23:29:33.650Z,27.07
2022-12-06T23:32:01.178Z,25.47
2022-12-06T23:34:28.678Z,27.73
2022-12-06T23:36:57.197Z,27.07
2022-12-06T23:39:24.634Z,27.97
2022-12-06T23:41:52.118Z,25.90
2022-12-06T23:44:20.993Z,26.30
2022-12-06T23:46:48.491Z,28.60
2022-12-06T23:49:17.345Z,27.23
2022-12-06T23:51:44.835Z,29.43
2022-12-06T23:54:13.079Z,33.20
2022-12-06T23:56:41.336Z,27.10
2022-12-06T23:59:10.731Z,31.67
